Time;durP1;ratioP1;P1;durP2;ratioP2;P2;SDS_P1;SDS_P2;PMS_P1;PMS_P2;Temp;Humidity;BMP_temperature;BMP_pressure;BME280_temperature;BME280_humidity;BME280_pressure;Samples;Min_cycle;Max_cycle;Signal;HPM_P1;HPM_P2
2023/06/28 00:01:18;;;;;;;4.43;2.45;;;;;;;21.50;100.00;100980.06;5020979;28;20033;-71
2023/06/28 00:03:43;;;;;;;4.30;2.63;;;;;;;21.33;100.00;100984.88;5038569;28;20033;-71
2023/06/28 00:06:09;;;;;;;4.53;2.78;;;;;;;21.35;100.00;100971.78;5020743;28;20079;-71
2023/06/28 00:08:34;;;;;;;3.53;2.78;;;;;;;21.44;100.00;100972.91;5037466;28;20040;-71
2023/06/28 00:11:00;;;;;;;3.97;2.70;;;;;;;21.38;100.00;100979.44;5038473;28;20025;-71
2023/06/28 00:13:25;;;;;;;3.50;2.50;;;;;;;21.35;100.00;100979.97;5019864;28;20370;-70
2023/06/28 00:15:51;;;;;;;7.18;3.00;;;;;;;21.25;100.00;100972.50;5020317;28;20059;-70
2023/06/28 00:18:16;;;;;;;7.05;2.95;;;;;;;21.11;100.00;100939.34;5038279;28;20017;-71
2023/06/28 00:20:42;;;;;;;3.38;2.70;;;;;;;21.41;100.00;100987.13;5037084;28;20042;-70
2023/06/28 00:23:08;;;;;;;5.32;2.42;;;;;;;21.49;100.00;100994.00;5020493;28;20045;-71
2023/06/28 00:25:37;;;;;;;6.03;3.50;;;;;;;21.52;100.00;100997.06;5037607;28;20031;-70
2023/06/28 00:28:04;;;;;;;4.65;3.42;;;;;;;21.36;100.00;100981.66;5018421;28;20148;-71
2023/06/28 00:30:30;;;;;;;4.05;3.50;;;;;;;21.35;100.00;100974.50;5019009;28;20025;-71
2023/06/28 00:32:55;;;;;;;5.15;3.78;;;;;;;21.00;100.00;101002.50;5036499;28;20112;-70
2023/06/28 00:35:21;;;;;;;5.50;3.97;;;;;;;21.04;100.00;101009.06;5036173;28;20041;-71
2023/06/28 00:37:46;;;;;;;6.10;3.95;;;;;;;20.96;100.00;101006.81;5038239;28;20029;-71
2023/06/28 00:40:12;;;;;;;5.93;3.88;;;;;;;20.91;100.00;101004.88;5038315;28;20037;-70
2023/06/28 00:42:37;;;;;;;5.70;4.07;;;;;;;20.91;100.00;101006.81;5020172;28;20392;-70
2023/06/28 00:45:03;;;;;;;5.72;4.10;;;;;;;20.75;100.00;100998.47;5037899;28;20056;-70
2023/06/28 00:47:30;;;;;;;5.95;4.25;;;;;;;20.68;100.00;100995.16;5036449;28;20029;-70
2023/06/28 00:49:56;;;;;;;7.05;3.80;;;;;;;20.82;100.00;101018.22;5037710;28;20037;-71
2023/06/28 00:52:22;;;;;;;9.20;3.80;;;;;;;20.77;100.00;101018.19;5019478;28;20101;-71
2023/06/28 00:54:48;;;;;;;7.22;4.13;;;;;;;20.77;100.00;101020.94;5035384;28;20114;-71
2023/06/28 00:57:13;;;;;;;6.65;3.95;;;;;;;20.69;100.00;101018.66;5037502;28;20025;-71
2023/06/28 00:59:40;;;;;;;5.20;4.40;;;;;;;20.54;100.00;101010.34;5049718;28;20026;-71
2023/06/28 01:02:06;;;;;;;15.43;4.45;;;;;;;20.56;100.00;101028.16;5032858;28;20017;-70
2023/06/28 01:04:36;;;;;;;7.72;3.88;;;;;;;20.52;100.00;101020.72;5019891;28;20048;-71
2023/06/28 01:07:03;;;;;;;5.63;4.43;;;;;;;20.52;100.00;101024.25;5019124;28;20029;-70
2023/06/28 01:09:32;;;;;;;5.45;4.07;;;;;;;20.44;100.00;101037.56;5035872;28;20055;-71
2023/06/28 01:11:59;;;;;;;7.90;4.10;;;;;;;20.41;100.00;101037.00;5037620;28;20021;-70
2023/06/28 01:14:25;;;;;;;8.40;4.90;;;;;;;20.32;100.00;101027.59;5035795;28;20053;-70
2023/06/28 01:16:54;;;;;;;6.40;4.63;;;;;;;20.31;100.00;101027.88;5019527;28;20037;-71
2023/06/28 01:19:22;;;;;;;5.60;4.18;;;;;;;20.33;100.00;101025.69;5037166;28;20075;-71
2023/06/28 01:21:51;;;;;;;4.53;3.25;;;;;;;20.24;100.00;101022.63;5035810;28;20036;-71
2023/06/28 01:24:21;;;;;;;4.88;3.60;;;;;;;19.92;100.00;100993.31;5036820;28;20056;-70
2023/06/28 01:26:51;;;;;;;5.40;4.10;;;;;;;19.98;100.00;101024.25;5037125;28;20096;-70
2023/06/28 01:29:21;;;;;;;6.40;4.00;;;;;;;19.80;100.00;101011.78;5037158;28;20095;-70
2023/06/28 01:31:56;;;;;;;3.40;2.97;;;;;;;19.77;100.00;101005.97;5037479;28;20109;-70
2023/06/28 01:34:22;;;;;;;5.78;4.25;;;;;;;19.82;100.00;101025.97;5035660;28;20384;-70
2023/06/28 01:36:50;;;;;;;6.38;4.28;;;;;;;19.73;100.00;101030.22;5037090;28;20029;-70
2023/06/28 01:39:19;;;;;;;4.70;3.60;;;;;;;19.79;100.00;101028.41;5019459;28;20124;-70
2023/06/28 01:41:46;;;;;;;5.13;4.15;;;;;;;19.78;100.00;101024.03;5036247;28;20144;-70
2023/06/28 01:44:12;;;;;;;4.38;3.78;;;;;;;19.67;100.00;101034.84;5036337;28;20416;-70
2023/06/28 01:46:39;;;;;;;4.88;3.47;;;;;;;19.55;100.00;101028.63;5018806;28;20400;-70
2023/06/28 01:49:05;;;;;;;5.32;3.70;;;;;;;19.51;100.00;101027.50;5036846;28;20029;-70
2023/06/28 01:51:30;;;;;;;7.47;4.03;;;;;;;19.46;100.00;101030.13;5036653;28;20399;-71
2023/06/28 01:53:56;;;;;;;6.68;3.65;;;;;;;19.38;100.00;101022.41;5018571;28;20038;-70
2023/06/28 01:56:22;;;;;;;7.22;5.53;;;;;;;19.37;100.00;101018.00;5036435;28;20021;-70
2023/06/28 01:58:47;;;;;;;5.57;4.22;;;;;;;19.34;100.00;101019.34;5036625;28;20032;-70
2023/06/28 02:01:13;;;;;;;7.43;4.82;;;;;;;19.34;100.00;101021.25;5035175;28;20037;-71
2023/06/28 02:03:38;;;;;;;7.00;4.18;;;;;;;19.35;100.00;101023.72;5016407;28;20064;-71
2023/06/28 02:06:04;;;;;;;6.80;4.40;;;;;;;19.29;100.00;101016.53;5029796;28;20038;-71
2023/06/28 02:08:29;;;;;;;6.10;4.40;;;;;;;19.11;100.00;101014.94;5049243;28;20028;-71
2023/06/28 02:10:55;;;;;;;5.20;3.72;;;;;;;19.16;100.00;101022.34;5039140;28;20191;-71
2023/06/28 02:13:20;;;;;;;5.60;3.30;;;;;;;19.12;100.00;101026.66;5018953;28;20026;-70
2023/06/28 02:15:46;;;;;;;3.97;3.35;;;;;;;19.00;100.00;101024.84;5035731;28;20049;-70
2023/06/28 02:18:14;;;;;;;4.22;3.67;;;;;;;18.86;100.00;101004.47;5036750;28;20509;-70
2023/06/28 02:20:39;;;;;;;5.35;3.40;;;;;;;18.94;100.00;101025.03;5040754;28;20025;-70
2023/06/28 02:23:05;;;;;;;3.38;3.08;;;;;;;18.88;100.00;101028.78;5007157;28;20116;-70
2023/06/28 02:25:30;;;;;;;4.45;3.22;;;;;;;18.82;100.00;101033.31;5023718;28;20053;-70
2023/06/28 02:27:55;;;;;;;5.07;3.22;;;;;;;18.63;100.00;101018.25;5040417;28;20021;-70
2023/06/28 02:30:21;;;;;;;3.28;2.80;;;;;;;18.47;100.00;101020.69;5022465;28;20029;-70
2023/06/28 02:32:46;;;;;;;4.68;3.20;;;;;;;18.56;100.00;101037.47;5022234;28;20095;-70
2023/06/28 02:35:12;;;;;;;4.65;3.08;;;;;;;18.57;100.00;101041.84;5022288;28;20037;-70
2023/06/28 02:37:37;;;;;;;3.85;3.00;;;;;;;18.55;100.00;101022.22;5040432;28;20033;-70
2023/06/28 02:40:04;;;;;;;6.00;3.03;;;;;;;18.78;100.00;101043.88;5022322;28;20017;-70
2023/06/28 02:42:30;;;;;;;5.22;3.97;;;;;;;19.11;100.00;101035.94;5021804;28;20040;-70
2023/06/28 02:44:55;;;;;;;3.88;3.25;;;;;;;19.39;100.00;101026.78;5039327;28;20045;-71
2023/06/28 02:47:20;;;;;;;4.35;3.80;;;;;;;19.82;100.00;101041.53;5022033;28;20473;-70
2023/06/28 02:49:46;;;;;;;6.22;4.22;;;;;;;20.16;100.00;101034.84;5021939;28;20063;-70
2023/06/28 02:52:11;;;;;;;6.80;3.28;;;;;;;20.51;100.00;101041.75;5039861;28;20033;-70
2023/06/28 02:54:37;;;;;;;5.32;3.30;;;;;;;20.71;100.00;101040.28;5038303;28;20088;-70
2023/06/28 02:57:03;;;;;;;7.40;3.10;;;;;;;20.83;98.56;101027.28;5038904;28;20476;-70
2023/06/28 02:59:28;;;;;;;5.78;3.15;;;;;;;21.08;97.03;101030.16;5038818;28;20037;-71
2023/06/28 03:01:53;;;;;;;4.88;3.08;;;;;;;21.35;95.33;101043.75;5005334;28;20041;-71
2023/06/28 03:04:19;;;;;;;3.67;3.10;;;;;;;21.58;94.56;101037.03;5018970;28;20396;-71
2023/06/28 03:06:51;;;;;;;5.72;3.33;;;;;;;22.08;93.64;101039.41;5036926;28;20917;-71
2023/06/28 03:09:17;;;;;;;4.38;3.20;;;;;;;22.45;91.76;101042.81;5022003;28;20033;-71
2023/06/28 03:11:42;;;;;;;4.90;3.50;;;;;;;22.73;90.27;101038.69;5028449;28;20056;-71
2023/06/28 03:14:08;;;;;;;4.18;3.40;;;;;;;23.09;88.79;101037.88;5043855;28;20383;-71
2023/06/28 03:16:33;;;;;;;3.75;3.00;;;;;;;;;;5038725;28;20053;-70
2023/06/28 03:18:58;;;;;;;5.03;3.20;;;;;;;23.47;85.55;101038.31;5039503;28;20033;-70
2023/06/28 03:21:24;;;;;;;3.03;2.72;;;;;;;23.73;84.26;101037.16;5021674;28;20037;-71
2023/06/28 03:23:49;;;;;;;3.78;3.00;;;;;;;24.06;83.33;101041.09;5039613;28;20025;-70
2023/06/28 03:26:15;;;;;;;3.95;3.22;;;;;;;24.54;81.42;101046.06;5039389;28;21204;-70
2023/06/28 03:28:40;;;;;;;3.78;3.00;;;;;;;24.77;79.62;101052.75;5021100;28;20030;-71
2023/06/28 03:31:06;;;;;;;3.72;3.13;;;;;;;24.93;78.17;101058.94;5021272;28;20025;-71
2023/06/28 03:33:31;;;;;;;4.80;2.95;;;;;;;24.87;76.84;101046.31;5004994;28;20094;-71
2023/06/28 03:35:57;;;;;;;4.00;3.10;;;;;;;24.95;76.21;101059.47;5038189;28;20044;-71
2023/06/28 03:38:22;;;;;;;5.28;3.22;;;;;;;24.98;75.63;101043.19;5037476;28;20037;-71
2023/06/28 03:40:48;;;;;;;4.25;3.10;;;;;;;25.37;74.55;101067.06;5039256;28;20036;-71
2023/06/28 03:43:13;;;;;;;4.53;2.92;;;;;;;25.51;73.14;101056.16;5037670;28;20079;-71
2023/06/28 03:45:39;;;;;;;4.72;2.50;;;;;;;25.71;72.35;101060.63;5020978;28;20112;-71
2023/06/28 03:48:04;;;;;;;4.30;2.47;;;;;;;25.89;71.26;101056.28;5038988;28;20104;-71
2023/06/28 03:50:30;;;;;;;3.65;2.60;;;;;;;26.13;69.16;101057.06;5020598;28;20031;-71
2023/06/28 03:52:55;;;;;;;2.90;2.55;;;;;;;26.29;68.41;101054.06;5021124;28;20033;-71
2023/06/28 03:55:21;;;;;;;4.78;2.67;;;;;;;26.45;67.56;101055.47;5004377;28;20036;-71
2023/06/28 03:57:46;;;;;;;3.13;2.40;;;;;;;26.58;67.24;101053.91;5004551;28;20029;-71
2023/06/28 04:00:12;;;;;;;5.20;2.30;;;;;;;26.69;66.62;101047.94;5037566;28;20033;-71
2023/06/28 04:02:39;;;;;;;5.07;2.70;;;;;;;26.75;66.12;101042.31;5018903;28;20185;-71
2023/06/28 04:05:05;;;;;;;5.35;2.80;;;;;;;26.97;65.52;101056.28;5034781;28;20044;-71
2023/06/28 04:07:30;;;;;;;4.07;2.80;;;;;;;27.02;64.79;101033.28;5019855;28;20053;-72
2023/06/28 04:09:56;;;;;;;4.13;2.97;;;;;;;27.21;64.45;101047.88;5020040;28;20041;-71
2023/06/28 04:12:22;;;;;;;4.47;2.90;;;;;;;27.09;64.51;101056.63;5025728;28;20471;-73
2023/06/28 04:14:48;;;;;;;5.70;3.13;;;;;;;27.20;64.34;101056.47;5022929;28;20160;-72
2023/06/28 04:17:14;;;;;;;3.78;2.97;;;;;;;27.52;63.12;101056.41;5039755;28;20036;-72
2023/06/28 04:19:39;;;;;;;6.28;3.05;;;;;;;27.55;62.82;101058.56;5040671;28;20104;-74
2023/06/28 04:22:05;;;;;;;6.15;2.92;;;;;;;27.43;63.56;101054.66;5005983;28;20080;-73
2023/06/28 04:24:30;;;;;;;4.10;3.00;;;;;;;27.49;63.24;101043.19;5022860;28;20523;-72
2023/06/28 04:27:00;;;;;;;3.40;3.08;;;;;;;27.84;62.40;101052.69;5037740;28;20025;-71
2023/06/28 04:29:26;;;;;;;4.97;2.83;;;;;;;28.16;61.31;101053.66;5038146;28;20052;-72
2023/06/28 04:31:51;;;;;;;4.20;3.10;;;;;;;28.26;60.93;101055.38;5020804;28;20021;-72
2023/06/28 04:34:17;;;;;;;4.03;3.03;;;;;;;28.23;61.67;101064.31;5037202;28;20549;-72
2023/06/28 04:36:43;;;;;;;4.30;3.22;;;;;;;27.56;63.78;101065.72;5036924;28;20540;-71
2023/06/28 04:39:09;;;;;;;4.43;3.55;;;;;;;26.50;67.92;101049.91;5020105;28;20040;-72
2023/06/28 04:41:34;;;;;;;3.75;3.15;;;;;;;26.74;69.86;101047.03;5020567;28;20034;-72
2023/06/28 04:44:00;;;;;;;4.18;3.70;;;;;;;27.60;67.60;101050.13;5037730;28;20054;-72
2023/06/28 04:46:28;;;;;;;4.50;3.10;;;;;;;28.23;66.08;101065.13;5020320;28;20040;-71
2023/06/28 04:48:56;;;;;;;4.07;3.40;;;;;;;28.36;65.23;101066.22;5036514;28;20040;-71
2023/06/28 04:51:21;;;;;;;3.67;2.60;;;;;;;28.31;65.43;101066.31;5020101;28;20406;-71
2023/06/28 04:53:48;;;;;;;4.68;3.20;;;;;;;28.25;65.59;101062.06;5019653;28;20034;-71
2023/06/28 04:56:17;;;;;;;4.35;3.35;;;;;;;28.33;65.63;101062.13;5038028;28;20080;-71
2023/06/28 04:58:43;;;;;;;6.35;2.70;;;;;;;28.45;65.94;101061.59;5037782;28;20048;-71
2023/06/28 05:01:08;;;;;;;5.82;2.85;;;;;;;28.09;66.70;101062.41;5038475;28;20034;-71
2023/06/28 05:03:35;;;;;;;4.72;3.30;;;;;;;27.99;67.45;101070.94;5037950;28;20093;-71
2023/06/28 05:06:02;;;;;;;5.05;3.80;;;;;;;27.84;67.54;101069.28;5020095;28;20139;-71
2023/06/28 05:08:27;;;;;;;4.55;3.80;;;;;;;27.67;68.58;101071.03;5019309;28;20056;-71
2023/06/28 05:10:53;;;;;;;4.72;4.18;;;;;;;27.51;70.01;101073.28;5017394;28;20551;-72
2023/06/28 05:13:20;;;;;;;5.13;3.88;;;;;;;27.32;70.71;101079.72;5038036;28;20030;-73
2023/06/28 05:15:46;;;;;;;4.30;3.45;;;;;;;27.36;71.41;101079.94;5046092;28;20036;-71
2023/06/28 05:18:11;;;;;;;4.95;3.70;;;;;;;27.11;72.46;101068.19;5024344;28;20037;-71
2023/06/28 05:20:37;;;;;;;4.85;4.18;;;;;;;27.11;73.52;101076.47;5002883;28;20029;-72
2023/06/28 05:23:13;;;;;;;5.20;3.90;;;;;;;27.01;73.39;101079.41;5036716;28;20025;-71
2023/06/28 05:25:40;;;;;;;7.05;4.28;;;;;;;26.94;74.59;101081.75;5019042;28;20124;-72
2023/06/28 05:28:06;;;;;;;4.65;4.10;;;;;;;26.86;74.74;101076.94;5020675;28;20031;-71
2023/06/28 05:30:32;;;;;;;6.50;4.80;;;;;;;26.59;74.76;101084.00;5029446;28;20029;-71
2023/06/28 05:32:58;;;;;;;5.78;4.40;;;;;;;26.25;76.10;101090.50;5015875;28;20128;-71
2023/06/28 05:35:24;;;;;;;5.05;4.45;;;;;;;25.86;77.40;101076.16;5036029;28;20060;-71
2023/06/28 05:37:50;;;;;;;5.40;4.90;;;;;;;25.80;78.14;101094.72;5021506;28;20489;-71
2023/06/28 05:40:15;;;;;;;5.28;4.75;;;;;;;25.59;79.75;101096.03;5038282;28;20384;-71
2023/06/28 05:42:41;;;;;;;5.70;5.07;;;;;;;25.35;80.65;101083.06;5020213;28;20040;-71
2023/06/28 05:45:08;;;;;;;7.13;5.80;;;;;;;24.94;83.16;101099.94;5020777;28;20571;-71
2023/06/28 05:47:33;;;;;;;6.55;5.55;;;;;;;24.82;85.49;101102.25;5037166;28;20083;-71
2023/06/28 05:49:59;;;;;;;7.57;6.05;;;;;;;24.96;85.76;101097.72;5021647;28;20029;-70
2023/06/28 05:52:24;;;;;;;9.30;6.60;;;;;;;24.68;87.27;101093.81;5021077;28;20492;-71
2023/06/28 05:54:49;;;;;;;7.97;6.40;;;;;;;24.38;89.66;101108.56;5035707;28;20037;-70
2023/06/28 05:57:16;;;;;;;7.13;6.32;;;;;;;24.06;91.64;101114.50;5019246;28;20492;-70
2023/06/28 05:59:41;;;;;;;9.93;6.72;;;;;;;23.83;93.93;101107.72;5020351;28;20033;-70
2023/06/28 06:02:07;;;;;;;19.58;7.03;;;;;;;23.61;96.74;101116.31;5021078;28;20036;-70
2023/06/28 06:04:32;;;;;;;17.67;6.63;;;;;;;23.42;99.94;101119.63;5015591;28;20029;-69
2023/06/28 06:06:58;;;;;;;14.88;5.53;;;;;;;23.32;100.00;101121.59;5034440;28;20021;-71
2023/06/28 06:09:23;;;;;;;22.15;5.93;;;;;;;23.23;100.00;101096.59;5035570;28;20409;-70
2023/06/28 06:11:49;;;;;;;12.45;4.90;;;;;;;23.44;100.00;101114.69;5035735;28;20032;-70
2023/06/28 06:14:15;;;;;;;17.70;5.63;;;;;;;23.51;99.92;101121.78;5037231;28;20131;-69
2023/06/28 06:16:41;;;;;;;15.70;6.78;;;;;;;23.50;100.00;101120.97;5019279;28;20080;-71
2023/06/28 06:19:06;;;;;;;21.30;6.30;;;;;;;23.49;100.00;101126.75;5036634;28;20026;-70
2023/06/28 06:21:31;;;;;;;16.60;5.75;;;;;;;23.49;100.00;101126.75;5037634;28;20531;-71
2023/06/28 06:23:59;;;;;;;17.80;5.85;;;;;;;23.19;100.00;101106.50;5037353;28;20566;-71
2023/06/28 06:26:25;;;;;;;20.95;6.10;;;;;;;23.29;100.00;101131.19;5036466;28;20025;-70
2023/06/28 06:28:50;;;;;;;19.88;6.32;;;;;;;23.44;100.00;101131.19;5037245;28;20029;-70
2023/06/28 06:31:16;;;;;;;18.83;5.93;;;;;;;23.35;100.00;101124.59;5019633;28;20116;-70
2023/06/28 06:33:41;;;;;;;19.42;5.95;;;;;;;23.29;100.00;101120.19;5019407;28;20451;-70
2023/06/28 06:36:07;;;;;;;20.88;6.65;;;;;;;23.51;100.00;101127.28;5036940;28;20119;-71
2023/06/28 06:38:32;;;;;;;16.77;6.30;;;;;;;23.20;100.00;101135.56;5019421;28;20043;-70
2023/06/28 06:40:58;;;;;;;15.32;7.28;;;;;;;23.10;100.00;101130.09;5036460;28;20029;-70
2023/06/28 06:43:23;;;;;;;11.32;5.43;;;;;;;23.21;100.00;101123.50;5035371;28;20096;-71
2023/06/28 06:45:48;;;;;;;9.80;4.68;;;;;;;23.26;100.00;101131.72;5019539;28;20144;-70
2023/06/28 06:48:14;;;;;;;11.45;6.32;;;;;;;23.55;100.00;101139.41;5036844;28;20052;-70
2023/06/28 06:50:39;;;;;;;16.02;7.53;;;;;;;23.43;100.00;101131.44;4998282;28;20075;-70
2023/06/28 06:53:05;;;;;;;14.52;6.22;;;;;;;23.46;100.00;101139.13;5035261;28;20128;-70
2023/06/28 06:55:32;;;;;;;13.88;5.80;;;;;;;23.52;100.00;101140.75;5019469;28;20412;-70
2023/06/28 06:57:58;;;;;;;14.55;6.15;;;;;;;23.32;100.00;101136.13;5037164;28;20089;-71
2023/06/28 07:00:23;;;;;;;10.32;5.95;;;;;;;23.43;100.00;101139.69;5019808;28;20049;-71
2023/06/28 07:02:49;;;;;;;8.25;6.10;;;;;;;23.42;100.00;101129.81;5036897;28;20076;-70
2023/06/28 07:05:15;;;;;;;13.70;6.63;;;;;;;23.61;100.00;101149.28;5040454;28;20120;-71
2023/06/28 07:07:41;;;;;;;9.55;4.43;;;;;;;23.71;99.62;101143.78;5022567;28;20022;-70
2023/06/28 07:10:07;;;;;;;10.93;4.57;;;;;;;23.70;98.85;101136.63;5022748;28;20021;-70
2023/06/28 07:12:34;;;;;;;11.02;6.22;;;;;;;23.83;98.53;101146.22;5038728;28;20099;-70
2023/06/28 07:15:00;;;;;;;11.35;5.35;;;;;;;23.85;98.56;101160.50;5023355;28;20021;-70
2023/06/28 07:17:25;;;;;;;11.05;6.45;;;;;;;23.47;99.43;101150.94;5039227;28;20029;-70
2023/06/28 07:19:50;;;;;;;11.68;5.28;;;;;;;23.56;99.37;101157.50;5022655;28;20496;-71
2023/06/28 07:22:16;;;;;;;8.40;4.13;;;;;;;23.68;98.44;101171.81;5040174;28;20083;-70
2023/06/28 07:24:41;;;;;;;12.38;4.40;;;;;;;23.76;97.63;101156.69;5022659;28;20038;-71
2023/06/28 07:27:07;;;;;;;14.15;6.82;;;;;;;23.92;97.01;101174.78;5040821;28;20032;-71
2023/06/28 07:29:33;;;;;;;11.02;6.25;;;;;;;23.96;96.61;101173.09;5039162;28;20033;-71
2023/06/28 07:31:58;;;;;;;9.07;5.45;;;;;;;23.92;96.16;101158.28;5039796;28;20028;-71
2023/06/28 07:34:24;;;;;;;5.57;3.53;;;;;;;23.88;95.54;101168.19;5021550;28;20041;-70
2023/06/28 07:36:49;;;;;;;6.50;4.90;;;;;;;23.73;95.42;101174.53;5038380;28;20464;-70
2023/06/28 07:39:15;;;;;;;7.75;4.20;;;;;;;23.94;94.37;101168.97;5022261;28;20076;-70
2023/06/28 07:41:40;;;;;;;4.25;3.55;;;;;;;23.75;95.16;101172.34;5022038;28;20587;-71
2023/06/28 07:44:06;;;;;;;6.38;4.57;;;;;;;23.59;96.06;101178.94;5039674;28;20052;-70
2023/06/28 07:46:31;;;;;;;6.22;5.10;;;;;;;23.66;95.35;101173.97;5039791;28;20029;-70
2023/06/28 07:48:59;;;;;;;5.90;4.05;;;;;;;23.57;95.49;101175.63;5038659;28;20096;-71
2023/06/28 07:51:26;;;;;;;6.82;4.18;;;;;;;23.90;94.64;101175.03;5038335;28;20094;-71
2023/06/28 07:53:51;;;;;;;10.45;3.80;;;;;;;23.99;94.72;101177.22;5039756;28;20052;-70
2023/06/28 07:56:19;;;;;;;7.47;3.42;;;;;;;23.82;95.04;101169.31;5021577;28;20030;-70
2023/06/28 07:58:45;;;;;;;8.65;4.15;;;;;;;23.83;95.54;101180.00;5039052;28;20083;-70
2023/06/28 08:01:10;;;;;;;13.82;5.28;;;;;;;23.84;96.06;101181.66;5021973;28;20029;-70
2023/06/28 08:03:36;;;;;;;10.10;5.78;;;;;;;24.12;94.31;101166.44;5021196;28;20056;-70
2023/06/28 08:06:01;;;;;;;9.23;4.20;;;;;;;23.98;94.81;101175.59;5036841;28;20061;-70
2023/06/28 08:08:27;;;;;;;13.65;5.80;;;;;;;24.04;95.22;101179.94;5034586;28;20051;-70
2023/06/28 08:10:54;;;;;;;10.40;5.80;;;;;;;23.84;96.04;101178.06;5021492;28;20033;-70
2023/06/28 08:13:19;;;;;;;12.63;4.50;;;;;;;24.03;96.53;101183.81;5005666;28;20052;-70
2023/06/28 08:15:44;;;;;;;15.25;5.07;;;;;;;24.03;97.39;101176.38;5021527;28;20396;-70
2023/06/28 08:18:10;;;;;;;14.65;4.60;;;;;;;24.08;96.88;101186.53;5039959;28;20494;-70
2023/06/28 08:20:36;;;;;;;12.63;4.30;;;;;;;24.09;97.04;101183.50;5039213;28;20459;-70
2023/06/28 08:23:02;;;;;;;11.35;4.72;;;;;;;24.12;95.98;101180.19;5021705;28;20037;-70
2023/06/28 08:25:27;;;;;;;13.38;5.30;;;;;;;23.97;95.92;101168.41;5037775;28;20033;-70
2023/06/28 08:27:53;;;;;;;10.82;4.90;;;;;;;23.87;96.83;101185.75;5018193;28;20029;-71
2023/06/28 08:30:19;;;;;;;11.57;4.25;;;;;;;23.98;96.96;101192.06;5022049;28;20384;-71
2023/06/28 08:32:45;;;;;;;15.60;6.47;;;;;;;23.94;96.70;101186.31;5040356;28;20049;-71
2023/06/28 08:35:10;;;;;;;14.27;6.15;;;;;;;23.96;97.16;101192.34;5023622;28;20030;-71
2023/06/28 08:37:36;;;;;;;14.43;7.82;;;;;;;23.90;97.35;101194.28;5039516;28;20029;-71
2023/06/28 08:40:05;;;;;;;12.05;4.43;;;;;;;23.91;97.77;101187.69;5039475;28;20108;-71
2023/06/28 08:42:33;;;;;;;13.98;5.25;;;;;;;24.18;96.94;101203.00;5021895;28;20052;-71
2023/06/28 08:45:01;;;;;;;10.70;4.97;;;;;;;24.13;96.30;101201.06;5039086;28;20053;-71
2023/06/28 08:47:32;;;;;;;16.38;4.85;;;;;;;24.18;95.76;101202.19;5039060;28;20487;-70
2023/06/28 08:49:58;;;;;;;11.68;3.85;;;;;;;24.26;94.69;101209.84;5005454;28;20033;-71
2023/06/28 08:52:25;;;;;;;12.70;4.43;;;;;;;24.12;94.47;101206.88;5021238;28;20033;-71
2023/06/28 08:54:52;;;;;;;11.73;4.55;;;;;;;24.09;96.02;101216.50;5021057;28;20033;-70
2023/06/28 08:57:17;;;;;;;14.40;4.82;;;;;;;24.15;95.69;101214.56;5038492;28;20017;-71
2023/06/28 08:59:43;;;;;;;13.63;4.72;;;;;;;24.13;94.77;101217.56;5039510;28;20148;-71
2023/06/28 09:02:09;;;;;;;11.68;4.40;;;;;;;24.18;94.83;101221.44;5038922;28;20033;-71
2023/06/28 09:04:35;;;;;;;14.65;4.70;;;;;;;24.06;94.77;101211.53;5038890;28;20029;-71
2023/06/28 09:07:01;;;;;;;15.55;4.50;;;;;;;24.11;95.28;101214.28;5038797;28;20089;-71
2023/06/28 09:09:29;;;;;;;16.25;5.03;;;;;;;24.38;94.27;101213.09;5021104;28;20057;-71
2023/06/28 09:11:55;;;;;;;16.98;5.20;;;;;;;24.31;94.13;101213.41;5021052;28;20056;-70
2023/06/28 09:14:20;;;;;;;14.90;4.95;;;;;;;24.17;94.19;101201.34;5039284;28;20029;-70
2023/06/28 09:16:46;;;;;;;18.35;4.93;;;;;;;24.14;93.70;101216.50;5021352;28;20040;-70
2023/06/28 09:19:11;;;;;;;12.18;4.53;;;;;;;24.12;92.48;101221.44;5020993;28;20025;-71
2023/06/28 09:21:37;;;;;;;12.95;3.97;;;;;;;24.19;92.15;101223.06;5035670;28;20086;-70
2023/06/28 09:24:02;;;;;;;15.50;4.45;;;;;;;24.14;92.25;101230.25;5033853;28;20148;-70
2023/06/28 09:26:32;;;;;;;12.75;4.00;;;;;;;24.11;92.98;101230.78;5020291;28;20124;-71
2023/06/28 09:29:10;;;;;;;11.43;4.40;;;;;;;23.89;94.38;101228.38;5007037;28;20672;-71
2023/06/28 09:31:44;;;;;;;13.23;4.30;;;;;;;24.00;95.30;101228.34;5028681;28;20097;-71
2023/06/28 09:34:10;;;;;;;10.40;4.03;;;;;;;24.10;94.18;101228.31;5027757;28;20149;-71
2023/06/28 09:36:38;;;;;;;11.30;3.50;;;;;;;24.30;93.57;101238.41;5045409;28;20029;-71
2023/06/28 09:39:05;;;;;;;14.85;4.30;;;;;;;24.06;93.68;101238.22;5046125;28;20033;-70
2023/06/28 09:41:38;;;;;;;9.30;3.78;;;;;;;24.08;93.83;101238.78;5046068;28;20024;-71
2023/06/28 09:44:05;;;;;;;11.38;3.95;;;;;;;24.02;93.64;101226.97;5029071;28;20054;-72
2023/06/28 09:46:32;;;;;;;12.98;4.80;;;;;;;24.08;94.27;101234.09;5047491;28;20017;-70
2023/06/28 09:48:59;;;;;;;11.88;4.72;;;;;;;23.87;94.63;101216.84;5043146;28;20041;-71
2023/06/28 09:51:25;;;;;;;11.65;4.47;;;;;;;23.80;95.03;101242.94;5040630;28;20372;-70
2023/06/28 09:53:52;;;;;;;10.30;3.95;;;;;;;23.75;94.95;101240.22;5004664;28;20167;-71
2023/06/28 09:56:19;;;;;;;10.40;4.10;;;;;;;23.66;95.17;101239.91;5020947;28;20040;-70
2023/06/28 09:58:47;;;;;;;8.45;3.60;;;;;;;23.64;94.90;101242.94;5038509;28;20029;-70
2023/06/28 10:01:15;;;;;;;7.32;3.75;;;;;;;23.48;96.25;101240.47;5020586;28;20029;-70
2023/06/28 10:03:42;;;;;;;7.15;3.30;;;;;;;23.19;95.88;101195.16;5038491;28;20021;-70
2023/06/28 10:06:10;;;;;;;6.85;3.33;;;;;;;23.37;96.45;101232.22;5020099;28;20029;-70
2023/06/28 10:08:36;;;;;;;4.65;3.30;;;;;;;23.47;97.24;101244.31;5019933;28;20040;-71
2023/06/28 10:11:08;;;;;;;6.32;3.15;;;;;;;23.59;96.83;101242.13;5038684;28;20412;-70
2023/06/28 10:13:34;;;;;;;8.45;3.28;;;;;;;23.39;95.15;101252.00;5039541;28;20503;-71
2023/06/28 10:16:05;;;;;;;6.22;2.92;;;;;;;23.75;94.12;101245.72;5037744;28;20025;-70
2023/06/28 10:18:31;;;;;;;4.60;2.50;;;;;;;23.79;92.08;101242.13;5032406;28;20038;-71
2023/06/28 10:20:59;;;;;;;5.53;2.70;;;;;;;23.73;91.55;101243.22;5037223;28;20550;-71
2023/06/28 10:23:25;;;;;;;5.15;2.90;;;;;;;23.84;91.23;101244.88;5018512;28;20029;-70
2023/06/28 10:25:54;;;;;;;5.50;2.78;;;;;;;23.77;90.66;101216.84;5021373;28;20034;-70
2023/06/28 10:28:19;;;;;;;6.40;2.78;;;;;;;24.19;89.89;101242.31;5038617;28;20017;-71
2023/06/28 10:30:45;;;;;;;4.22;2.50;;;;;;;23.92;89.06;101224.25;5021788;28;20419;-70
2023/06/28 10:33:15;;;;;;;3.53;2.67;;;;;;;24.18;87.92;101241.50;5021366;28;20037;-71
2023/06/28 10:35:44;;;;;;;3.72;2.28;;;;;;;24.15;86.94;101240.13;5005373;28;20502;-71
2023/06/28 10:38:10;;;;;;;4.20;2.28;;;;;;;24.23;86.88;101241.47;5038092;28;20026;-70
2023/06/28 10:40:35;;;;;;;3.53;2.25;;;;;;;24.51;85.47;101234.53;5019583;28;20040;-71
2023/06/28 10:43:01;;;;;;;3.03;2.30;;;;;;;24.72;84.20;101235.22;5040875;28;20408;-70
2023/06/28 10:45:34;;;;;;;3.42;2.30;;;;;;;24.58;82.69;101236.97;5042137;28;20061;-70
2023/06/28 10:48:00;;;;;;;6.80;2.20;;;;;;;24.51;82.04;101226.28;5042917;28;20044;-71
2023/06/28 10:50:26;;;;;;;5.15;2.10;;;;;;;24.45;81.88;101235.66;5040104;28;20021;-71
2023/06/28 10:52:54;;;;;;;4.50;2.42;;;;;;;24.43;82.46;101226.03;5023678;28;20104;-71
2023/06/28 10:55:30;;;;;;;5.93;2.42;;;;;;;24.50;81.39;101227.38;5029411;28;20079;-70
2023/06/28 10:58:11;;;;;;;4.35;2.30;;;;;;;24.50;81.04;101216.38;5043253;28;20029;-71
2023/06/28 11:00:41;;;;;;;4.63;2.30;;;;;;;24.45;82.24;101210.88;5043072;28;20029;-70
2023/06/28 11:03:07;;;;;;;4.70;2.08;;;;;;;24.55;82.41;101227.34;5042478;28;20033;-71
2023/06/28 11:05:44;;;;;;;2.75;2.08;;;;;;;24.29;81.86;101225.78;5041507;28;20033;-71
2023/06/28 11:08:15;;;;;;;3.67;1.80;;;;;;;24.21;83.42;101224.44;5024096;28;20041;-71
2023/06/28 11:10:46;;;;;;;4.80;2.33;;;;;;;24.36;82.58;101220.78;5041541;28;20542;-70
2023/06/28 11:13:13;;;;;;;2.65;1.90;;;;;;;24.06;82.94;101225.28;5039697;28;20022;-70
2023/06/28 11:15:45;;;;;;;4.35;1.88;;;;;;;24.21;83.22;101229.94;5019006;28;20044;-71
2023/06/28 11:18:20;;;;;;;3.17;1.73;;;;;;;23.98;83.20;101223.13;5039788;28;20029;-71